createdAt,value
2019-05-25T00:00:13.690Z,99.90
2019-05-25T00:02:42.688Z,99.90
2019-05-25T00:05:11.391Z,99.90
2019-05-25T00:07:40.077Z,99.90
2019-05-25T00:10:09.047Z,99.90
2019-05-25T00:12:37.649Z,99.90
2019-05-25T00:15:07.272Z,99.90
2019-05-25T00:17:35.944Z,99.90
2019-05-25T00:20:05.644Z,99.90
2019-05-25T00:22:34.324Z,99.90
2019-05-25T00:25:02.915Z,99.90
2019-05-25T00:27:31.801Z,99.90
2019-05-25T00:30:00.449Z,99.90
2019-05-25T00:32:29.127Z,99.90
2019-05-25T00:34:57.699Z,99.90
2019-05-25T00:37:26.279Z,99.90
2019-05-25T00:39:54.967Z,99.90
2019-05-25T00:42:23.571Z,99.90
2019-05-25T00:44:52.313Z,99.90
2019-05-25T00:47:27.369Z,99.90
2019-05-25T00:49:56.015Z,99.90
2019-05-25T00:52:24.654Z,99.90
2019-05-25T00:54:53.343Z,99.90
2019-05-25T00:57:21.904Z,99.90
2019-05-25T00:59:50.502Z,99.90
2019-05-25T01:02:19.492Z,99.90
2019-05-25T01:04:48.101Z,99.90
2019-05-25T01:07:16.673Z,99.90
2019-05-25T01:09:45.279Z,99.90
2019-05-25T01:12:14.180Z,99.90
2019-05-25T01:14:42.844Z,99.90
2019-05-25T01:17:11.429Z,99.90
2019-05-25T01:19:40.044Z,99.90
2019-05-25T01:22:08.915Z,99.90
2019-05-25T01:24:44.480Z,99.90
2019-05-25T01:27:08.160Z,99.90
2019-05-25T01:29:36.757Z,99.90
2019-05-25T01:32:05.337Z,99.90
2019-05-25T01:34:34.314Z,99.90
2019-05-25T01:37:02.902Z,99.90
2019-05-25T01:39:31.468Z,99.90
2019-05-25T01:42:00.126Z,99.90
2019-05-25T01:44:28.707Z,99.90
2019-05-25T01:46:57.296Z,99.90
2019-05-25T01:49:25.909Z,99.90
2019-05-25T01:51:54.474Z,99.90
2019-05-25T01:54:23.045Z,99.90
2019-05-25T01:56:51.611Z,99.90
2019-05-25T01:59:20.489Z,99.90
2019-05-25T02:01:49.147Z,99.90
2019-05-25T02:04:17.737Z,99.90
2019-05-25T02:06:46.768Z,99.90
2019-05-25T02:09:15.341Z,99.90
2019-05-25T02:11:43.954Z,99.90
2019-05-25T02:14:12.520Z,99.90
2019-05-25T02:16:41.184Z,99.90
2019-05-25T02:19:09.749Z,99.90
2019-05-25T02:21:38.622Z,99.90
2019-05-25T02:24:07.269Z,99.90
2019-05-25T02:26:35.922Z,99.90
2019-05-25T02:29:04.749Z,99.90
2019-05-25T02:31:33.337Z,99.90
2019-05-25T02:34:01.995Z,99.90
2019-05-25T02:36:30.583Z,99.90
2019-05-25T02:38:59.174Z,99.90
2019-05-25T02:41:28.229Z,99.90
2019-05-25T02:43:56.871Z,99.90
2019-05-25T02:46:25.452Z,99.90
2019-05-25T02:48:54.045Z,99.90
2019-05-25T02:51:22.668Z,99.90
2019-05-25T02:53:51.389Z,99.90
2019-05-25T02:56:19.985Z,99.90
2019-05-25T02:58:48.957Z,99.90
2019-05-25T03:01:17.550Z,99.90
2019-05-25T03:03:46.209Z,99.90
2019-05-25T03:06:15.599Z,99.90
2019-05-25T03:08:45.460Z,99.90
2019-05-25T03:11:14.096Z,99.90
2019-05-25T03:13:42.845Z,99.90
2019-05-25T03:16:11.423Z,99.90
2019-05-25T03:18:40.095Z,99.90
2019-05-25T03:21:08.670Z,99.90
2019-05-25T03:23:37.327Z,99.90
2019-05-25T03:26:05.933Z,99.90
2019-05-25T03:28:34.597Z,99.90
2019-05-25T03:31:03.186Z,99.90
2019-05-25T03:33:31.775Z,99.90
2019-05-25T03:36:00.419Z,99.90
2019-05-25T03:38:29.033Z,99.90
2019-05-25T03:40:57.920Z,99.90
2019-05-25T03:43:26.508Z,99.90
2019-05-25T03:45:55.083Z,99.90
2019-05-25T03:48:23.709Z,99.90
2019-05-25T03:50:52.338Z,99.90
2019-05-25T03:53:21.197Z,99.90
2019-05-25T03:56:04.681Z,99.90
2019-05-25T03:58:20.498Z,99.90
2019-05-25T04:00:49.495Z,99.90
2019-05-25T04:03:18.482Z,99.90
2019-05-25T04:05:47.152Z,99.90
2019-05-25T04:08:15.728Z,99.90
2019-05-25T04:10:44.328Z,99.90
2019-05-25T04:13:12.893Z,99.90
2019-05-25T04:15:41.481Z,99.90
2019-05-25T04:18:10.137Z,99.90
2019-05-25T04:20:38.735Z,99.90
2019-05-25T04:23:07.389Z,99.90
2019-05-25T04:25:36.303Z,99.90
2019-05-25T04:28:05.002Z,99.90
2019-05-25T04:30:33.576Z,99.90
2019-05-25T04:33:02.250Z,99.90
2019-05-25T04:35:30.840Z,99.90
2019-05-25T04:37:59.499Z,99.90
2019-05-25T04:40:28.081Z,99.90
2019-05-25T04:42:56.836Z,99.90
2019-05-25T04:45:25.747Z,99.90
2019-05-25T04:47:54.344Z,99.90
2019-05-25T04:50:22.993Z,99.90
2019-05-25T04:52:51.576Z,99.90
2019-05-25T04:55:20.569Z,99.90
2019-05-25T04:57:49.240Z,99.90
2019-05-25T05:00:17.968Z,99.90
2019-05-25T05:02:46.613Z,99.90
2019-05-25T05:05:15.362Z,99.90
2019-05-25T05:07:43.932Z,99.90
2019-05-25T05:10:12.657Z,99.90
2019-05-25T05:12:41.241Z,99.90
2019-05-25T05:15:10.398Z,99.90
2019-05-25T05:17:38.992Z,99.90
2019-05-25T05:20:09.121Z,99.90
2019-05-25T05:22:37.788Z,99.90
2019-05-25T05:25:08.139Z,99.90
2019-05-25T05:27:37.330Z,99.90
2019-05-25T05:30:08.354Z,99.90
2019-05-25T05:32:37.062Z,99.90
2019-05-25T05:35:09.348Z,99.90
2019-05-25T05:37:39.834Z,99.90
2019-05-25T05:40:09.454Z,99.90
2019-05-25T05:42:39.752Z,99.90
2019-05-25T05:45:09.183Z,99.90
2019-05-25T05:47:37.894Z,99.90
2019-05-25T05:50:08.358Z,99.90
2019-05-25T05:52:40.257Z,99.90
2019-05-25T05:55:10.981Z,99.90
2019-05-25T05:57:39.643Z,99.90
2019-05-25T06:00:10.442Z,99.90
2019-05-25T06:02:39.050Z,99.90
2019-05-25T06:05:08.472Z,99.90
2019-05-25T06:07:37.129Z,99.90
2019-05-25T06:10:07.235Z,99.90
2019-05-25T06:12:35.829Z,99.90
2019-05-25T06:15:07.015Z,99.90
2019-05-25T06:17:35.622Z,99.90
2019-05-25T06:20:06.428Z,99.90
2019-05-25T06:22:35.118Z,99.90
2019-05-25T06:25:05.311Z,99.90
2019-05-25T06:27:34.359Z,99.90
2019-05-25T06:30:03.454Z,99.90
2019-05-25T06:32:32.346Z,99.90
2019-05-25T06:35:00.997Z,99.90
2019-05-25T06:37:29.565Z,99.90
2019-05-25T06:39:58.155Z,99.90
2019-05-25T06:42:26.759Z,99.90
2019-05-25T06:44:55.321Z,99.90
2019-05-25T06:47:24.285Z,99.90
2019-05-25T06:49:52.866Z,99.90
2019-05-25T06:52:21.520Z,99.90
2019-05-25T06:54:50.114Z,99.90
2019-05-25T06:57:18.678Z,99.90
2019-05-25T06:59:47.346Z,99.90
2019-05-25T07:02:15.914Z,99.90
2019-05-25T07:04:44.496Z,99.90
2019-05-25T07:07:13.132Z,99.90
2019-05-25T07:09:41.815Z,99.90
2019-05-25T07:12:10.470Z,99.60
2019-05-25T07:14:39.048Z,98.90
2019-05-25T07:17:08.062Z,98.00
2019-05-25T07:19:36.643Z,98.50
2019-05-25T07:22:05.385Z,98.10
2019-05-25T07:24:33.956Z,98.20
2019-05-25T07:27:02.584Z,98.10
2019-05-25T07:29:31.215Z,97.70
2019-05-25T07:31:59.936Z,96.60
2019-05-25T07:34:28.506Z,97.40
2019-05-25T07:36:57.140Z,97.20
2019-05-25T07:39:26.079Z,96.60
2019-05-25T07:41:54.713Z,96.80
2019-05-25T07:44:23.337Z,96.80
2019-05-25T07:46:51.927Z,97.10
2019-05-25T07:49:20.513Z,96.80
2019-05-25T07:51:49.132Z,96.70
2019-05-25T07:54:17.792Z,96.30
2019-05-25T07:56:46.371Z,96.20
2019-05-25T07:59:15.024Z,95.30
2019-05-25T08:01:43.554Z,95.70
2019-05-25T08:04:12.107Z,94.70
2019-05-25T08:06:40.683Z,95.10
2019-05-25T08:09:09.395Z,95.00
2019-05-25T08:11:38.003Z,93.40
2019-05-25T08:14:07.018Z,93.80
2019-05-25T08:16:35.915Z,94.30
2019-05-25T08:19:04.644Z,94.00
2019-05-25T08:21:33.234Z,93.30
2019-05-25T08:24:01.794Z,93.90
2019-05-25T08:26:30.652Z,93.20
2019-05-25T08:28:59.747Z,93.10
2019-05-25T08:31:28.631Z,92.70
2019-05-25T08:33:57.681Z,92.30
2019-05-25T08:36:29.560Z,92.30
2019-05-25T08:38:56.685Z,92.40
2019-05-25T08:41:25.676Z,92.40
2019-05-25T08:43:55.172Z,92.40
2019-05-25T08:46:23.749Z,92.20
2019-05-25T08:48:52.324Z,91.60
2019-05-25T08:51:20.960Z,91.00
2019-05-25T08:53:49.618Z,90.30
2019-05-25T08:56:18.187Z,90.00
2019-05-25T08:58:48.687Z,90.00
2019-05-25T09:01:16.983Z,90.10
2019-05-25T09:03:45.576Z,89.60
2019-05-25T09:06:14.513Z,88.90
2019-05-25T09:08:43.402Z,88.00
2019-05-25T09:11:12.046Z,88.50
2019-05-25T09:13:40.628Z,87.10
2019-05-25T09:16:09.183Z,86.20
2019-05-25T09:18:37.834Z,85.90
2019-05-25T09:21:06.851Z,84.20
2019-05-25T09:23:35.773Z,83.50
2019-05-25T09:26:04.569Z,85.50
2019-05-25T09:28:33.157Z,83.80
2019-05-25T09:31:01.769Z,85.30
2019-05-25T09:33:30.408Z,82.80
2019-05-25T09:35:58.985Z,84.50
2019-05-25T09:38:27.582Z,85.30
2019-05-25T09:40:56.171Z,84.10
2019-05-25T09:43:24.786Z,83.80
2019-05-25T09:45:53.876Z,83.70
2019-05-25T09:48:22.522Z,84.60
2019-05-25T09:50:51.197Z,85.90
2019-05-25T09:53:19.849Z,86.30
2019-05-25T09:55:48.441Z,85.00
2019-05-25T09:58:17.090Z,85.20
2019-05-25T10:00:45.764Z,85.60
2019-05-25T10:03:14.336Z,86.20
2019-05-25T10:05:42.973Z,85.20
2019-05-25T10:08:11.622Z,83.90
2019-05-25T10:10:40.219Z,83.90
2019-05-25T10:13:08.872Z,83.80
2019-05-25T10:15:37.454Z,82.00
2019-05-25T10:18:06.027Z,81.50
2019-05-25T10:20:34.615Z,80.10
2019-05-25T10:23:03.244Z,79.50
2019-05-25T10:25:31.879Z,77.80
2019-05-25T10:28:22.521Z,78.50
2019-05-25T10:30:57.525Z,78.20
2019-05-25T10:33:26.481Z,77.60
2019-05-25T10:35:55.151Z,75.40
2019-05-25T10:38:24.283Z,76.80
2019-05-25T10:40:52.869Z,75.90
2019-05-25T10:43:21.562Z,76.00
2019-05-25T10:45:50.211Z,77.30
2019-05-25T10:48:18.861Z,77.60
2019-05-25T10:50:47.661Z,78.60
2019-05-25T10:53:16.426Z,75.20
2019-05-25T10:55:45.177Z,77.20
2019-05-25T10:58:15.394Z,76.70
2019-05-25T11:00:44.089Z,77.70
2019-05-25T11:03:12.727Z,76.20
2019-05-25T11:05:41.342Z,75.80
2019-05-25T11:08:10.520Z,75.80
2019-05-25T11:10:41.296Z,75.30
2019-05-25T11:13:11.615Z,78.40
2019-05-25T11:15:40.608Z,75.60
2019-05-25T11:18:09.636Z,75.80
2019-05-25T11:20:39.394Z,75.20
2019-05-25T11:23:11.583Z,72.70
2019-05-25T11:25:40.260Z,75.10
2019-05-25T11:28:08.912Z,75.90
2019-05-25T11:30:37.505Z,75.30
2019-05-25T11:33:06.124Z,74.90
2019-05-25T11:35:34.876Z,73.80
2019-05-25T11:38:03.530Z,74.50
2019-05-25T11:40:32.124Z,73.70
2019-05-25T11:43:00.701Z,70.30
2019-05-25T11:45:29.398Z,71.10
2019-05-25T11:47:57.902Z,70.80
2019-05-25T11:50:26.549Z,72.20
2019-05-25T11:52:55.242Z,71.70
2019-05-25T11:55:23.938Z,73.40
2019-05-25T11:57:52.566Z,74.60
2019-05-25T12:00:25.570Z,71.90
2019-05-25T12:02:54.062Z,71.00
2019-05-25T12:05:22.699Z,68.80
2019-05-25T12:07:51.350Z,74.50
2019-05-25T12:10:20.454Z,73.60
2019-05-25T12:12:49.014Z,71.90
2019-05-25T12:15:17.813Z,69.70
2019-05-25T12:17:46.469Z,69.80
2019-05-25T12:20:15.671Z,70.50
2019-05-25T12:22:44.261Z,71.30
2019-05-25T12:25:13.461Z,69.00
2019-05-25T12:27:42.516Z,69.20
2019-05-25T12:30:11.829Z,68.60
2019-05-25T12:32:40.503Z,69.20
2019-05-25T12:35:09.839Z,71.40
2019-05-25T12:37:38.420Z,70.70
2019-05-25T12:40:08.534Z,73.30
2019-05-25T12:42:37.196Z,68.10
2019-05-25T12:45:07.003Z,65.40
2019-05-25T12:47:37.157Z,64.20
2019-05-25T12:50:08.786Z,62.20
2019-05-25T12:52:37.434Z,62.10
2019-05-25T12:55:06.905Z,60.80
2019-05-25T12:57:35.709Z,61.20
2019-05-25T13:00:15.653Z,61.50
2019-05-25T13:02:37.095Z,60.20
2019-05-25T13:05:06.145Z,59.20
2019-05-25T13:07:34.883Z,59.90
2019-05-25T13:10:05.242Z,60.70
2019-05-25T13:12:35.354Z,62.60
2019-05-25T13:15:06.440Z,62.30
2019-05-25T13:17:35.260Z,62.30
2019-05-25T13:20:05.763Z,64.30
2019-05-25T13:22:34.314Z,59.70
2019-05-25T13:25:04.735Z,59.70
2019-05-25T13:27:33.299Z,60.90
2019-05-25T13:30:03.343Z,60.00
2019-05-25T13:32:32.238Z,62.70
2019-05-25T13:35:01.202Z,62.40
2019-05-25T13:37:29.771Z,59.40
2019-05-25T13:39:58.333Z,60.00
2019-05-25T13:42:26.921Z,58.20
2019-05-25T13:44:55.791Z,57.60
2019-05-25T13:47:24.521Z,56.90
2019-05-25T13:49:53.018Z,57.30
2019-05-25T13:52:21.669Z,54.80
2019-05-25T13:54:50.234Z,53.10
2019-05-25T13:57:22.051Z,49.60
2019-05-25T13:59:50.594Z,46.00
2019-05-25T14:02:19.267Z,42.70
2019-05-25T14:04:47.989Z,40.10
2019-05-25T14:07:16.640Z,39.30
2019-05-25T14:09:45.353Z,37.70
2019-05-25T14:12:13.950Z,36.20
2019-05-25T14:14:42.622Z,34.30
2019-05-25T14:17:11.275Z,33.50
2019-05-25T14:19:41.474Z,31.90
2019-05-25T14:22:10.076Z,31.40
2019-05-25T14:24:38.678Z,30.70
2019-05-25T14:27:07.739Z,31.00
2019-05-25T14:29:36.368Z,30.30
2019-05-25T14:32:05.081Z,30.60
2019-05-25T14:34:33.726Z,32.10
2019-05-25T14:37:02.292Z,31.60
2019-05-25T14:39:30.941Z,31.30
2019-05-25T14:41:59.516Z,30.60
2019-05-25T14:44:28.106Z,30.40
2019-05-25T14:46:56.779Z,29.50
2019-05-25T14:49:25.834Z,29.20
2019-05-25T14:51:54.488Z,29.90
2019-05-25T14:54:23.092Z,29.40
2019-05-25T14:56:51.585Z,29.00
2019-05-25T14:59:20.119Z,28.50
2019-05-25T15:02:01.336Z,28.70
2019-05-25T15:04:18.969Z,27.90
2019-05-25T15:06:47.571Z,27.70
2019-05-25T15:09:16.198Z,28.70
2019-05-25T15:11:44.784Z,28.90
2019-05-25T15:14:13.395Z,28.10
2019-05-25T15:16:42.093Z,27.70
2019-05-25T15:19:11.079Z,27.50
2019-05-25T15:21:39.750Z,27.00
2019-05-25T15:24:08.411Z,27.20
2019-05-25T15:26:37.182Z,26.80
2019-05-25T15:29:05.812Z,27.80
2019-05-25T15:31:34.547Z,27.00
2019-05-25T15:34:03.385Z,26.50
2019-05-25T15:36:31.939Z,27.50
2019-05-25T15:39:00.594Z,26.70
2019-05-25T15:41:29.175Z,27.00
2019-05-25T15:43:57.770Z,26.80
2019-05-25T15:46:26.342Z,26.60
2019-05-25T15:48:54.970Z,26.70
2019-05-25T15:51:23.600Z,27.10
2019-05-25T15:53:52.192Z,27.10
2019-05-25T15:56:21.176Z,26.10
2019-05-25T15:58:50.075Z,26.00
2019-05-25T16:01:18.689Z,27.00
2019-05-25T16:03:47.270Z,26.50
2019-05-25T16:06:15.847Z,26.30
2019-05-25T16:08:44.508Z,26.00
2019-05-25T16:11:13.246Z,26.50
2019-05-25T16:13:41.838Z,27.00
2019-05-25T16:16:10.457Z,26.60
2019-05-25T16:18:39.032Z,26.40
2019-05-25T16:21:07.701Z,26.60
2019-05-25T16:23:36.276Z,26.60
2019-05-25T16:26:04.990Z,26.90
2019-05-25T16:28:33.632Z,26.60
2019-05-25T16:31:02.195Z,26.70
2019-05-25T16:33:30.831Z,27.40
2019-05-25T16:35:59.753Z,27.20
2019-05-25T16:38:28.426Z,27.20
2019-05-25T16:40:57.451Z,27.20
2019-05-25T16:43:26.152Z,27.40
2019-05-25T16:45:54.801Z,27.00
2019-05-25T16:48:23.437Z,27.40
2019-05-25T16:50:52.019Z,26.70
2019-05-25T16:53:21.088Z,27.70
2019-05-25T16:55:49.714Z,28.10
2019-05-25T16:58:18.362Z,27.80
2019-05-25T17:00:46.948Z,28.00
2019-05-25T17:03:27.455Z,28.10
2019-05-25T17:05:45.845Z,27.90
2019-05-25T17:08:14.542Z,28.60
2019-05-25T17:10:43.570Z,29.50
2019-05-25T17:13:12.205Z,29.20
2019-05-25T17:15:40.826Z,29.30
2019-05-25T17:18:09.394Z,30.20
2019-05-25T17:20:38.061Z,30.40
2019-05-25T17:23:06.643Z,30.40
2019-05-25T17:25:35.299Z,31.20
2019-05-25T17:28:03.995Z,32.40
2019-05-25T17:30:38.860Z,33.80
2019-05-25T17:33:07.596Z,35.50
2019-05-25T17:35:36.664Z,37.50
2019-05-25T17:38:05.759Z,39.40
2019-05-25T17:40:34.709Z,41.20
2019-05-25T17:43:03.328Z,43.30
2019-05-25T17:45:32.030Z,45.30
2019-05-25T17:48:00.938Z,46.50
2019-05-25T17:53:16.843Z,49.60
2019-05-25T17:55:45.434Z,50.90
2019-05-25T18:01:10.805Z,53.90
2019-05-25T18:03:39.416Z,54.80
2019-05-25T18:06:08.074Z,55.70
2019-05-25T18:08:36.946Z,56.60
2019-05-25T18:11:06.617Z,57.40
2019-05-25T18:13:35.263Z,58.20
2019-05-25T18:16:03.978Z,59.20
2019-05-25T18:18:32.544Z,60.40
2019-05-25T18:21:01.227Z,61.90
2019-05-25T18:23:30.131Z,62.80
2019-05-25T18:25:58.899Z,64.10
2019-05-25T18:28:27.529Z,65.10
2019-05-25T18:30:56.113Z,66.10
2019-05-25T18:33:24.699Z,67.60
2019-05-25T18:35:53.341Z,68.90
2019-05-25T18:38:22.008Z,69.70
2019-05-25T18:40:50.926Z,71.30
2019-05-25T18:43:19.603Z,72.50
2019-05-25T18:45:48.248Z,73.50
2019-05-25T18:48:16.833Z,75.30
2019-05-25T18:50:45.573Z,76.30
2019-05-25T18:53:14.719Z,78.70
2019-05-25T18:55:43.380Z,78.80
2019-05-25T18:58:11.987Z,80.80
2019-05-25T19:00:40.643Z,81.80
2019-05-25T19:03:09.353Z,83.10
2019-05-25T19:05:37.878Z,84.70
2019-05-25T19:08:06.426Z,85.70
2019-05-25T19:10:35.099Z,86.60
2019-05-25T19:13:04.041Z,87.80
2019-05-25T19:15:32.609Z,88.80
2019-05-25T19:18:01.178Z,89.50
2019-05-25T19:20:29.839Z,90.60
2019-05-25T19:22:58.391Z,90.90
2019-05-25T19:25:27.089Z,91.10
2019-05-25T19:27:55.675Z,91.60
2019-05-25T19:30:24.773Z,91.90
2019-05-25T19:32:53.334Z,92.60
2019-05-25T19:35:22.246Z,92.30
2019-05-25T19:37:50.945Z,93.00
2019-05-25T19:40:19.665Z,93.60
2019-05-25T19:42:50.024Z,93.20
2019-05-25T19:45:19.118Z,93.80
2019-05-25T19:47:47.737Z,94.30
2019-05-25T19:50:17.777Z,94.40
2019-05-25T19:52:46.444Z,94.80
2019-05-25T19:55:15.680Z,94.80
2019-05-25T19:57:45.318Z,95.10
2019-05-25T20:00:14.933Z,95.30
2019-05-25T20:02:43.530Z,95.50
2019-05-25T20:05:16.865Z,95.70
2019-05-25T20:07:42.692Z,95.90
2019-05-25T20:10:12.630Z,96.20
2019-05-25T20:12:41.242Z,96.40
2019-05-25T20:15:10.669Z,96.70
2019-05-25T20:17:39.696Z,96.70
2019-05-25T20:20:11.528Z,97.10
2019-05-25T20:22:40.172Z,97.10
2019-05-25T20:25:08.890Z,97.20
2019-05-25T20:27:37.530Z,97.40
2019-05-25T20:30:07.616Z,97.60
2019-05-25T20:32:36.224Z,97.80
2019-05-25T20:35:06.649Z,98.00
2019-05-25T20:37:35.316Z,98.20
2019-05-25T20:40:05.763Z,98.30
2019-05-25T20:42:34.685Z,98.30
2019-05-25T20:45:03.543Z,98.40
2019-05-25T20:47:32.156Z,98.60
2019-05-25T20:50:00.721Z,98.70
2019-05-25T20:52:29.372Z,99.00
2019-05-25T20:54:57.969Z,99.20
2019-05-25T20:57:26.541Z,99.20
2019-05-25T20:59:55.206Z,99.20
2019-05-25T21:02:23.856Z,99.50
2019-05-25T21:04:52.448Z,99.40
2019-05-25T21:07:21.385Z,99.40
2019-05-25T21:09:50.276Z,99.60
2019-05-25T21:12:19.305Z,99.70
2019-05-25T21:14:47.873Z,99.80
2019-05-25T21:17:16.442Z,99.90
2019-05-25T21:19:45.021Z,99.90
2019-05-25T21:22:13.587Z,99.90
2019-05-25T21:24:42.152Z,99.90
2019-05-25T21:27:10.758Z,99.90
2019-05-25T21:29:39.345Z,99.90
2019-05-25T21:32:07.918Z,99.90
2019-05-25T21:34:36.495Z,99.90
2019-05-25T21:37:05.094Z,99.90
2019-05-25T21:39:33.667Z,99.90
2019-05-25T21:42:02.406Z,99.90
2019-05-25T21:44:30.972Z,99.90
2019-05-25T21:46:59.572Z,99.90
2019-05-25T21:49:28.248Z,99.90
2019-05-25T21:51:56.910Z,99.90
2019-05-25T21:54:25.510Z,99.90
2019-05-25T21:56:54.144Z,99.90
2019-05-25T21:59:22.757Z,99.90
2019-05-25T22:01:51.512Z,99.90
2019-05-25T22:04:20.172Z,99.90
2019-05-25T22:06:48.761Z,99.90
2019-05-25T22:09:17.404Z,99.90
2019-05-25T22:11:46.133Z,99.90
2019-05-25T22:14:14.722Z,99.90
2019-05-25T22:16:43.413Z,99.90
2019-05-25T22:19:12.043Z,99.90
2019-05-25T22:21:40.630Z,99.90
2019-05-25T22:24:09.200Z,99.90
2019-05-25T22:26:37.954Z,99.90
2019-05-25T22:29:06.570Z,99.90
2019-05-25T22:31:35.137Z,99.90
2019-05-25T22:34:03.795Z,99.90
2019-05-25T22:36:40.219Z,99.90
2019-05-25T22:39:03.174Z,99.90
2019-05-25T22:41:31.759Z,99.90
2019-05-25T22:44:00.360Z,99.90
2019-05-25T22:46:29.195Z,99.90
2019-05-25T22:48:57.857Z,99.90
2019-05-25T22:51:26.785Z,99.90
2019-05-25T22:53:55.619Z,99.90
2019-05-25T22:56:24.201Z,99.90
2019-05-25T22:58:52.705Z,99.90
2019-05-25T23:01:21.285Z,99.90
2019-05-25T23:03:50.144Z,99.90
2019-05-25T23:06:19.151Z,99.90
2019-05-25T23:08:47.722Z,99.90
2019-05-25T23:11:16.608Z,99.90
2019-05-25T23:13:45.191Z,99.90
2019-05-25T23:16:13.773Z,99.90
2019-05-25T23:18:42.414Z,99.90
2019-05-25T23:21:11.046Z,99.90
2019-05-25T23:23:39.718Z,99.90
2019-05-25T23:26:08.411Z,99.90
2019-05-25T23:28:36.925Z,99.90
2019-05-25T23:31:05.501Z,99.90
2019-05-25T23:33:34.091Z,99.90
2019-05-25T23:36:02.661Z,99.90
2019-05-25T23:38:31.349Z,99.90
2019-05-25T23:40:59.997Z,99.90
2019-05-25T23:43:28.605Z,99.90
2019-05-25T23:45:57.175Z,99.90
2019-05-25T23:48:25.734Z,99.90
2019-05-25T23:50:54.313Z,99.90
2019-05-25T23:53:22.959Z,99.90
2019-05-25T23:55:51.653Z,99.90
2019-05-25T23:58:20.257Z,99.90
